sensor_id;sensor_type;location;lat;lon;timestamp;temperature;humidity
63371;DHT22;49504;48.336;14.472;2023-01-24T00:02:03;26.00;39.80
63371;DHT22;49504;48.336;14.472;2023-01-24T00:09:26;26.00;39.40
63371;DHT22;49504;48.336;14.472;2023-01-24T00:14:27;26.00;39.80
63371;DHT22;49504;48.336;14.472;2023-01-24T00:19:28;26.00;39.80
63371;DHT22;49504;48.336;14.472;2023-01-24T00:24:30;26.00;39.80
63371;DHT22;49504;48.336;14.472;2023-01-24T00:29:31;26.00;39.80
63371;DHT22;49504;48.336;14.472;2023-01-24T00:34:32;26.00;39.80
63371;DHT22;49504;48.336;14.472;2023-01-24T00:42:22;26.00;39.40
63371;DHT22;49504;48.336;14.472;2023-01-24T00:47:24;26.00;39.80
63371;DHT22;49504;48.336;14.472;2023-01-24T00:52:25;26.00;39.90
63371;DHT22;49504;48.336;14.472;2023-01-24T00:57:28;26.00;39.80
63371;DHT22;49504;48.336;14.472;2023-01-24T01:02:30;26.00;39.80
63371;DHT22;49504;48.336;14.472;2023-01-24T01:07:32;26.00;39.90
63371;DHT22;49504;48.336;14.472;2023-01-24T01:12:34;26.00;39.90
63371;DHT22;49504;48.336;14.472;2023-01-24T01:17:35;26.00;39.90
63371;DHT22;49504;48.336;14.472;2023-01-24T01:22:36;26.00;39.90
63371;DHT22;49504;48.336;14.472;2023-01-24T01:27:39;26.00;39.90
63371;DHT22;49504;48.336;14.472;2023-01-24T01:36:20;26.00;39.40
63371;DHT22;49504;48.336;14.472;2023-01-24T01:41:21;26.00;39.90
63371;DHT22;49504;48.336;14.472;2023-01-24T01:46:26;26.00;39.90
63371;DHT22;49504;48.336;14.472;2023-01-24T01:51:37;26.00;39.90
63371;DHT22;49504;48.336;14.472;2023-01-24T01:56:44;26.00;39.90
63371;DHT22;49504;48.336;14.472;2023-01-24T02:01:48;26.00;39.90
63371;DHT22;49504;48.336;14.472;2023-01-24T02:06:55;26.00;39.80
63371;DHT22;49504;48.336;14.472;2023-01-24T02:12:01;26.00;39.80
63371;DHT22;49504;48.336;14.472;2023-01-24T02:17:05;26.00;39.80
63371;DHT22;49504;48.336;14.472;2023-01-24T02:22:14;26.00;39.80
63371;DHT22;49504;48.336;14.472;2023-01-24T02:27:18;26.00;39.80
63371;DHT22;49504;48.336;14.472;2023-01-24T02:32:19;26.00;39.80
63371;DHT22;49504;48.336;14.472;2023-01-24T02:37:20;26.00;39.80
63371;DHT22;49504;48.336;14.472;2023-01-24T02:42:26;26.00;39.80
63371;DHT22;49504;48.336;14.472;2023-01-24T02:47:36;26.00;39.80
63371;DHT22;49504;48.336;14.472;2023-01-24T02:52:40;26.00;39.80
63371;DHT22;49504;48.336;14.472;2023-01-24T02:57:42;26.00;39.80
63371;DHT22;49504;48.336;14.472;2023-01-24T03:02:43;25.90;39.70
63371;DHT22;49504;48.336;14.472;2023-01-24T03:07:44;25.90;39.70
63371;DHT22;49504;48.336;14.472;2023-01-24T03:16:44;25.90;39.20
63371;DHT22;49504;48.336;14.472;2023-01-24T03:21:46;26.00;39.80
63371;DHT22;49504;48.336;14.472;2023-01-24T03:26:47;26.00;39.80
63371;DHT22;49504;48.336;14.472;2023-01-24T03:31:51;26.00;39.80
63371;DHT22;49504;48.336;14.472;2023-01-24T03:36:54;25.90;39.70
63371;DHT22;49504;48.336;14.472;2023-01-24T03:41:55;25.90;39.60
63371;DHT22;49504;48.336;14.472;2023-01-24T03:46:58;26.00;39.70
63371;DHT22;49504;48.336;14.472;2023-01-24T03:52:00;26.00;39.70
63371;DHT22;49504;48.336;14.472;2023-01-24T03:57:02;26.00;39.70
63371;DHT22;49504;48.336;14.472;2023-01-24T04:06:06;26.00;39.20
63371;DHT22;49504;48.336;14.472;2023-01-24T04:11:07;26.00;39.70
63371;DHT22;49504;48.336;14.472;2023-01-24T04:16:08;26.00;39.60
63371;DHT22;49504;48.336;14.472;2023-01-24T04:21:37;26.00;39.60
63371;DHT22;49504;48.336;14.472;2023-01-24T04:26:38;26.00;39.70
63371;DHT22;49504;48.336;14.472;2023-01-24T04:31:43;26.00;39.60
63371;DHT22;49504;48.336;14.472;2023-01-24T04:36:58;26.00;39.70
63371;DHT22;49504;48.336;14.472;2023-01-24T04:41:59;26.00;39.70
63371;DHT22;49504;48.336;14.472;2023-01-24T04:47:00;26.00;39.60
63371;DHT22;49504;48.336;14.472;2023-01-24T04:52:04;25.90;39.60
63371;DHT22;49504;48.336;14.472;2023-01-24T04:57:19;26.00;39.70
63371;DHT22;49504;48.336;14.472;2023-01-24T05:02:20;26.00;39.80
63371;DHT22;49504;48.336;14.472;2023-01-24T05:07:23;26.00;39.70
63371;DHT22;49504;48.336;14.472;2023-01-24T05:12:45;26.00;39.10
63371;DHT22;49504;48.336;14.472;2023-01-24T05:17:54;26.00;39.50
63371;DHT22;49504;48.336;14.472;2023-01-24T05:22:58;26.00;39.30
63371;DHT22;49504;48.336;14.472;2023-01-24T05:28:03;26.00;39.20
63371;DHT22;49504;48.336;14.472;2023-01-24T05:33:09;26.00;39.00
63371;DHT22;49504;48.336;14.472;2023-01-24T05:38:12;26.00;39.00
63371;DHT22;49504;48.336;14.472;2023-01-24T05:45:44;25.90;38.70
63371;DHT22;49504;48.336;14.472;2023-01-24T05:50:45;26.00;39.40
63371;DHT22;49504;48.336;14.472;2023-01-24T05:55:54;25.90;39.50
63371;DHT22;49504;48.336;14.472;2023-01-24T06:00:57;25.90;39.40
63371;DHT22;49504;48.336;14.472;2023-01-24T06:06:14;25.90;39.10
63371;DHT22;49504;48.336;14.472;2023-01-24T06:11:18;25.90;38.90
63371;DHT22;49504;48.336;14.472;2023-01-24T06:16:23;25.90;39.10
63371;DHT22;49504;48.336;14.472;2023-01-24T06:21:39;25.90;39.00
63371;DHT22;49504;48.336;14.472;2023-01-24T06:26:46;25.90;39.10
63371;DHT22;49504;48.336;14.472;2023-01-24T06:31:56;25.90;39.20
63371;DHT22;49504;48.336;14.472;2023-01-24T06:37:10;25.90;39.30
63371;DHT22;49504;48.336;14.472;2023-01-24T06:42:16;25.90;39.40
63371;DHT22;49504;48.336;14.472;2023-01-24T06:47:19;25.90;39.50
63371;DHT22;49504;48.336;14.472;2023-01-24T06:52:21;25.90;39.50
63371;DHT22;49504;48.336;14.472;2023-01-24T06:57:22;25.90;39.50
63371;DHT22;49504;48.336;14.472;2023-01-24T07:04:11;25.80;38.90
63371;DHT22;49504;48.336;14.472;2023-01-24T07:09:12;25.80;39.50
63371;DHT22;49504;48.336;14.472;2023-01-24T07:16:25;25.90;39.00
63371;DHT22;49504;48.336;14.472;2023-01-24T07:21:27;25.90;39.60
63371;DHT22;49504;48.336;14.472;2023-01-24T07:26:29;25.90;39.60
63371;DHT22;49504;48.336;14.472;2023-01-24T07:31:32;25.80;39.50
63371;DHT22;49504;48.336;14.472;2023-01-24T07:36:33;25.90;39.70
63371;DHT22;49504;48.336;14.472;2023-01-24T07:41:34;25.80;39.60
63371;DHT22;49504;48.336;14.472;2023-01-24T07:46:37;25.90;39.80
63371;DHT22;49504;48.336;14.472;2023-01-24T07:51:38;25.90;39.70
63371;DHT22;49504;48.336;14.472;2023-01-24T07:56:39;25.90;39.80
63371;DHT22;49504;48.336;14.472;2023-01-24T08:05:11;25.80;39.10
63371;DHT22;49504;48.336;14.472;2023-01-24T08:10:12;25.90;39.80
63371;DHT22;49504;48.336;14.472;2023-01-24T08:15:13;25.80;39.70
63371;DHT22;49504;48.336;14.472;2023-01-24T08:20:16;25.80;39.70
63371;DHT22;49504;48.336;14.472;2023-01-24T08:25:17;25.80;39.70
63371;DHT22;49504;48.336;14.472;2023-01-24T08:30:19;25.90;39.80
63371;DHT22;49504;48.336;14.472;2023-01-24T08:40:11;25.80;39.10
63371;DHT22;49504;48.336;14.472;2023-01-24T08:45:12;25.80;39.70
63371;DHT22;49504;48.336;14.472;2023-01-24T08:50:13;25.80;39.80
63371;DHT22;49504;48.336;14.472;2023-01-24T08:55:16;25.80;39.70
63371;DHT22;49504;48.336;14.472;2023-01-24T09:00:18;25.80;39.70
63371;DHT22;49504;48.336;14.472;2023-01-24T09:05:19;25.80;39.80
63371;DHT22;49504;48.336;14.472;2023-01-24T09:10:22;25.80;39.80
63371;DHT22;49504;48.336;14.472;2023-01-24T09:15:23;25.80;39.80
63371;DHT22;49504;48.336;14.472;2023-01-24T09:20:25;25.80;39.80
63371;DHT22;49504;48.336;14.472;2023-01-24T09:25:27;25.80;39.90
63371;DHT22;49504;48.336;14.472;2023-01-24T09:30:28;25.80;39.80
63371;DHT22;49504;48.336;14.472;2023-01-24T09:35:30;25.80;39.80
63371;DHT22;49504;48.336;14.472;2023-01-24T09:40:41;25.80;39.90
63371;DHT22;49504;48.336;14.472;2023-01-24T09:45:51;25.80;39.80
63371;DHT22;49504;48.336;14.472;2023-01-24T09:51:03;25.80;39.90
63371;DHT22;49504;48.336;14.472;2023-01-24T09:56:11;25.80;40.00
63371;DHT22;49504;48.336;14.472;2023-01-24T10:01:14;25.80;40.00
63371;DHT22;49504;48.336;14.472;2023-01-24T10:06:19;25.80;40.00
63371;DHT22;49504;48.336;14.472;2023-01-24T10:11:32;25.80;40.00
63371;DHT22;49504;48.336;14.472;2023-01-24T10:17:00;25.80;40.00
63371;DHT22;49504;48.336;14.472;2023-01-24T10:22:18;25.80;40.00
63371;DHT22;49504;48.336;14.472;2023-01-24T10:27:30;25.80;40.10
63371;DHT22;49504;48.336;14.472;2023-01-24T10:32:33;25.80;40.10
63371;DHT22;49504;48.336;14.472;2023-01-24T10:37:38;25.80;40.10
63371;DHT22;49504;48.336;14.472;2023-01-24T10:42:43;25.80;40.10
63371;DHT22;49504;48.336;14.472;2023-01-24T10:47:45;25.70;40.10
63371;DHT22;49504;48.336;14.472;2023-01-24T10:52:49;25.70;40.70
63371;DHT22;49504;48.336;14.472;2023-01-24T10:57:52;25.80;40.20
63371;DHT22;49504;48.336;14.472;2023-01-24T11:02:56;25.70;40.10
63371;DHT22;49504;48.336;14.472;2023-01-24T11:07:59;25.80;40.20
63371;DHT22;49504;48.336;14.472;2023-01-24T11:13:26;25.70;40.10
63371;DHT22;49504;48.336;14.472;2023-01-24T11:18:32;25.70;40.00
63371;DHT22;49504;48.336;14.472;2023-01-24T11:23:34;25.70;40.40
63371;DHT22;49504;48.336;14.472;2023-01-24T11:28:37;25.70;40.10
63371;DHT22;49504;48.336;14.472;2023-01-24T11:33:49;25.70;40.10
63371;DHT22;49504;48.336;14.472;2023-01-24T11:38:57;25.70;40.70
63371;DHT22;49504;48.336;14.472;2023-01-24T11:45:10;25.70;39.50
63371;DHT22;49504;48.336;14.472;2023-01-24T11:50:34;25.70;40.00
63371;DHT22;49504;48.336;14.472;2023-01-24T11:55:48;25.70;40.10
63371;DHT22;49504;48.336;14.472;2023-01-24T12:01:04;25.70;40.10
63371;DHT22;49504;48.336;14.472;2023-01-24T12:06:19;25.70;40.10
63371;DHT22;49504;48.336;14.472;2023-01-24T12:11:29;25.70;39.90
63371;DHT22;49504;48.336;14.472;2023-01-24T12:16:44;25.70;40.10
63371;DHT22;49504;48.336;14.472;2023-01-24T12:26:08;25.80;39.60
63371;DHT22;49504;48.336;14.472;2023-01-24T12:31:17;25.80;40.10
63371;DHT22;49504;48.336;14.472;2023-01-24T12:39:12;25.70;39.50
63371;DHT22;49504;48.336;14.472;2023-01-24T12:44:25;25.70;39.90
63371;DHT22;49504;48.336;14.472;2023-01-24T12:49:33;25.80;40.00
63371;DHT22;49504;48.336;14.472;2023-01-24T12:59:54;25.70;39.30
63371;DHT22;49504;48.336;14.472;2023-01-24T13:10:34;25.80;39.90
63371;DHT22;49504;48.336;14.472;2023-01-24T13:15:52;25.80;39.90
63371;DHT22;49504;48.336;14.472;2023-01-24T13:21:06;25.70;39.80
63371;DHT22;49504;48.336;14.472;2023-01-24T13:26:41;25.80;39.90
63371;DHT22;49504;48.336;14.472;2023-01-24T13:32:00;25.80;39.90
63371;DHT22;49504;48.336;14.472;2023-01-24T13:37:05;25.80;39.90
63371;DHT22;49504;48.336;14.472;2023-01-24T13:42:19;25.80;39.90
63371;DHT22;49504;48.336;14.472;2023-01-24T13:47:25;25.80;39.90
63371;DHT22;49504;48.336;14.472;2023-01-24T13:52:55;25.80;40.00
63371;DHT22;49504;48.336;14.472;2023-01-24T13:58:18;25.80;40.00
63371;DHT22;49504;48.336;14.472;2023-01-24T14:03:23;25.80;40.00
63371;DHT22;49504;48.336;14.472;2023-01-24T14:08:58;25.80;40.00
63371;DHT22;49504;48.336;14.472;2023-01-24T14:14:25;25.80;40.00
63371;DHT22;49504;48.336;14.472;2023-01-24T14:19:46;25.80;40.00
63371;DHT22;49504;48.336;14.472;2023-01-24T14:24:56;25.80;40.10
63371;DHT22;49504;48.336;14.472;2023-01-24T14:30:03;25.80;40.10
63371;DHT22;49504;48.336;14.472;2023-01-24T14:35:28;25.80;40.10
63371;DHT22;49504;48.336;14.472;2023-01-24T14:40:30;25.80;40.10
63371;DHT22;49504;48.336;14.472;2023-01-24T14:45:33;25.80;40.10
63371;DHT22;49504;48.336;14.472;2023-01-24T14:50:37;25.80;40.20
63371;DHT22;49504;48.336;14.472;2023-01-24T14:55:39;25.80;40.20
63371;DHT22;49504;48.336;14.472;2023-01-24T15:00:42;25.80;40.20
63371;DHT22;49504;48.336;14.472;2023-01-24T15:05:55;25.80;40.20
63371;DHT22;49504;48.336;14.472;2023-01-24T15:11:01;25.80;40.10
63371;DHT22;49504;48.336;14.472;2023-01-24T15:16:05;25.80;40.10
63371;DHT22;49504;48.336;14.472;2023-01-24T15:21:17;25.80;40.20
63371;DHT22;49504;48.336;14.472;2023-01-24T15:28:56;25.80;39.60
63371;DHT22;49504;48.336;14.472;2023-01-24T15:33:59;25.80;40.00
63371;DHT22;49504;48.336;14.472;2023-01-24T15:39:01;25.90;40.00
63371;DHT22;49504;48.336;14.472;2023-01-24T15:44:06;25.90;39.80
63371;DHT22;49504;48.336;14.472;2023-01-24T15:49:21;26.00;40.10
63371;DHT22;49504;48.336;14.472;2023-01-24T15:54:32;26.10;39.80
63371;DHT22;49504;48.336;14.472;2023-01-24T15:59:42;26.10;39.70
63371;DHT22;49504;48.336;14.472;2023-01-24T16:04:53;26.20;39.70
63371;DHT22;49504;48.336;14.472;2023-01-24T16:12:02;26.20;39.40
63371;DHT22;49504;48.336;14.472;2023-01-24T16:17:03;26.30;40.30
63371;DHT22;49504;48.336;14.472;2023-01-24T16:22:05;26.30;40.20
63371;DHT22;49504;48.336;14.472;2023-01-24T16:27:10;26.30;40.20
63371;DHT22;49504;48.336;14.472;2023-01-24T16:32:19;26.30;40.10
63371;DHT22;49504;48.336;14.472;2023-01-24T16:37:22;26.30;40.20
63371;DHT22;49504;48.336;14.472;2023-01-24T16:42:25;26.20;40.10
63371;DHT22;49504;48.336;14.472;2023-01-24T16:49:43;26.20;39.60
63371;DHT22;49504;48.336;14.472;2023-01-24T16:54:44;26.20;40.20
63371;DHT22;49504;48.336;14.472;2023-01-24T16:59:45;26.20;40.40
63371;DHT22;49504;48.336;14.472;2023-01-24T17:04:48;26.20;40.10
63371;DHT22;49504;48.336;14.472;2023-01-24T17:09:49;26.20;40.20
63371;DHT22;49504;48.336;14.472;2023-01-24T17:14:51;26.20;40.20
63371;DHT22;49504;48.336;14.472;2023-01-24T17:19:53;26.20;40.40
63371;DHT22;49504;48.336;14.472;2023-01-24T17:24:54;26.20;40.50
63371;DHT22;49504;48.336;14.472;2023-01-24T17:29:55;26.20;40.40
63371;DHT22;49504;48.336;14.472;2023-01-24T17:34:58;26.10;40.30
63371;DHT22;49504;48.336;14.472;2023-01-24T17:39:59;26.10;40.40
63371;DHT22;49504;48.336;14.472;2023-01-24T17:45:00;26.10;40.40
63371;DHT22;49504;48.336;14.472;2023-01-24T17:51:45;26.10;39.70
63371;DHT22;49504;48.336;14.472;2023-01-24T17:56:47;26.10;40.40
63371;DHT22;49504;48.336;14.472;2023-01-24T18:01:48;26.10;40.40
63371;DHT22;49504;48.336;14.472;2023-01-24T18:06:51;26.10;40.30
63371;DHT22;49504;48.336;14.472;2023-01-24T18:11:52;26.10;40.30
63371;DHT22;49504;48.336;14.472;2023-01-24T18:16:53;26.10;40.20
63371;DHT22;49504;48.336;14.472;2023-01-24T18:21:55;26.00;40.10
63371;DHT22;49504;48.336;14.472;2023-01-24T18:26:56;26.00;40.20
63371;DHT22;49504;48.336;14.472;2023-01-24T18:31:58;26.00;40.20
63371;DHT22;49504;48.336;14.472;2023-01-24T18:37:00;26.10;40.10
63371;DHT22;49504;48.336;14.472;2023-01-24T18:42:01;26.00;40.20
63371;DHT22;49504;48.336;14.472;2023-01-24T18:47:03;26.00;40.10
63371;DHT22;49504;48.336;14.472;2023-01-24T18:53:21;26.00;39.80
63371;DHT22;49504;48.336;14.472;2023-01-24T18:58:23;26.00;40.70
63371;DHT22;49504;48.336;14.472;2023-01-24T19:03:24;26.00;40.70
63371;DHT22;49504;48.336;14.472;2023-01-24T19:08:26;26.00;40.80
63371;DHT22;49504;48.336;14.472;2023-01-24T19:17:19;26.00;40.10
63371;DHT22;49504;48.336;14.472;2023-01-24T19:22:20;26.00;40.80
63371;DHT22;49504;48.336;14.472;2023-01-24T19:27:21;26.00;40.70
63371;DHT22;49504;48.336;14.472;2023-01-24T19:32:24;26.00;40.90
63371;DHT22;49504;48.336;14.472;2023-01-24T19:37:25;26.00;41.00
63371;DHT22;49504;48.336;14.472;2023-01-24T19:42:26;26.00;41.00
63371;DHT22;49504;48.336;14.472;2023-01-24T19:47:29;26.00;40.90
63371;DHT22;49504;48.336;14.472;2023-01-24T19:52:30;26.00;40.80
63371;DHT22;49504;48.336;14.472;2023-01-24T19:57:31;26.00;40.90
63371;DHT22;49504;48.336;14.472;2023-01-24T20:02:33;26.00;40.80
63371;DHT22;49504;48.336;14.472;2023-01-24T20:07:35;26.00;40.80
63371;DHT22;49504;48.336;14.472;2023-01-24T20:12:36;26.00;40.80
63371;DHT22;49504;48.336;14.472;2023-01-24T20:17:38;26.00;40.70
63371;DHT22;49504;48.336;14.472;2023-01-24T20:22:39;26.00;40.70
63371;DHT22;49504;48.336;14.472;2023-01-24T20:27:40;25.90;40.70
63371;DHT22;49504;48.336;14.472;2023-01-24T20:32:43;26.00;40.70
63371;DHT22;49504;48.336;14.472;2023-01-24T20:37:44;25.90;40.70
63371;DHT22;49504;48.336;14.472;2023-01-24T20:42:45;25.90;40.70
63371;DHT22;49504;48.336;14.472;2023-01-24T20:47:48;25.90;40.70
63371;DHT22;49504;48.336;14.472;2023-01-24T20:52:49;25.90;40.80
63371;DHT22;49504;48.336;14.472;2023-01-24T20:57:50;25.90;40.80
63371;DHT22;49504;48.336;14.472;2023-01-24T21:02:53;25.90;40.90
63371;DHT22;49504;48.336;14.472;2023-01-24T21:07:54;25.90;40.90
63371;DHT22;49504;48.336;14.472;2023-01-24T21:12:55;25.90;40.90
63371;DHT22;49504;48.336;14.472;2023-01-24T21:17:58;25.90;40.90
63371;DHT22;49504;48.336;14.472;2023-01-24T21:22:59;25.90;40.90
63371;DHT22;49504;48.336;14.472;2023-01-24T21:28:00;25.90;40.90
63371;DHT22;49504;48.336;14.472;2023-01-24T21:33:03;25.90;40.90
63371;DHT22;49504;48.336;14.472;2023-01-24T21:38:04;25.90;40.90
63371;DHT22;49504;48.336;14.472;2023-01-24T21:43:05;25.90;41.00
63371;DHT22;49504;48.336;14.472;2023-01-24T21:48:07;25.90;40.90
63371;DHT22;49504;48.336;14.472;2023-01-24T21:55:29;25.90;40.30
63371;DHT22;49504;48.336;14.472;2023-01-24T22:00:30;25.80;40.90
63371;DHT22;49504;48.336;14.472;2023-01-24T22:08:48;25.90;40.30
63371;DHT22;49504;48.336;14.472;2023-01-24T22:13:50;25.90;41.00
63371;DHT22;49504;48.336;14.472;2023-01-24T22:19:56;25.90;40.40
63371;DHT22;49504;48.336;14.472;2023-01-24T22:25:04;25.90;41.00
63371;DHT22;49504;48.336;14.472;2023-01-24T22:30:16;25.90;41.10
63371;DHT22;49504;48.336;14.472;2023-01-24T22:35:43;25.80;40.40
63371;DHT22;49504;48.336;14.472;2023-01-24T22:40:46;25.90;41.20
63371;DHT22;49504;48.336;14.472;2023-01-24T22:45:47;25.90;41.20
63371;DHT22;49504;48.336;14.472;2023-01-24T22:50:53;25.90;41.10
63371;DHT22;49504;48.336;14.472;2023-01-24T22:55:54;25.90;41.10
63371;DHT22;49504;48.336;14.472;2023-01-24T23:01:02;25.90;41.10
63371;DHT22;49504;48.336;14.472;2023-01-24T23:06:07;25.90;41.10
63371;DHT22;49504;48.336;14.472;2023-01-24T23:11:09;26.00;41.10
63371;DHT22;49504;48.336;14.472;2023-01-24T23:16:13;26.00;41.10
63371;DHT22;49504;48.336;14.472;2023-01-24T23:21:16;25.90;41.10
63371;DHT22;49504;48.336;14.472;2023-01-24T23:26:18;25.90;41.00
63371;DHT22;49504;48.336;14.472;2023-01-24T23:31:21;25.90;41.00
63371;DHT22;49504;48.336;14.472;2023-01-24T23:36:23;25.90;41.00
63371;DHT22;49504;48.336;14.472;2023-01-24T23:41:24;25.90;41.00
63371;DHT22;49504;48.336;14.472;2023-01-24T23:46:26;26.00;41.10
63371;DHT22;49504;48.336;14.472;2023-01-24T23:51:28;25.90;41.00
63371;DHT22;49504;48.336;14.472;2023-01-24T23:56:29;26.00;41.10
